createdAt,value
2023-03-17T00:03:06.022Z,31.39
2023-03-17T00:05:58.402Z,31.41
2023-03-17T00:08:46.553Z,31.59
2023-03-17T00:11:33.546Z,31.52
2023-03-17T00:14:20.329Z,31.66
2023-03-17T00:17:11.959Z,31.73
2023-03-17T00:19:58.872Z,31.73
2023-03-17T00:22:46.405Z,31.79
2023-03-17T00:25:34.651Z,31.76
2023-03-17T00:28:24.722Z,31.83
2023-03-17T00:31:26.234Z,31.83
2023-03-17T00:34:15.735Z,31.82
2023-03-17T00:37:04.421Z,31.91
2023-03-17T00:39:51.636Z,31.78
2023-03-17T00:42:39.353Z,31.84
2023-03-17T00:45:28.333Z,31.94
2023-03-17T00:48:21.626Z,31.86
2023-03-17T00:51:09.534Z,31.69
2023-03-17T00:53:57.263Z,31.79
2023-03-17T00:56:46.108Z,32.07
2023-03-17T00:59:40.515Z,31.92
2023-03-17T01:02:31.113Z,31.99
2023-03-17T01:05:19.356Z,31.87
2023-03-17T01:08:06.583Z,31.81
2023-03-17T01:10:53.288Z,31.96
2023-03-17T01:13:40.616Z,32.08
2023-03-17T01:16:28.406Z,32.01
2023-03-17T01:19:16.889Z,31.91
2023-03-17T01:22:04.857Z,31.88
2023-03-17T01:24:51.747Z,31.84
2023-03-17T01:27:39.776Z,31.79
2023-03-17T01:30:38.573Z,31.90
2023-03-17T01:33:25.901Z,31.65
2023-03-17T01:36:13.328Z,31.62
2023-03-17T01:39:00.545Z,31.42
2023-03-17T01:41:47.579Z,31.29
2023-03-17T01:44:34.475Z,31.21
2023-03-17T01:47:23.858Z,31.16
2023-03-17T01:50:11.377Z,31.08
2023-03-17T01:52:59.416Z,30.74
2023-03-17T01:55:48.594Z,30.86
2023-03-17T01:58:36.425Z,30.75
2023-03-17T02:01:29.279Z,30.77
2023-03-17T02:04:18.638Z,30.65
2023-03-17T02:07:06.204Z,30.57
2023-03-17T02:09:55.458Z,30.63
2023-03-17T02:12:44.406Z,30.61
2023-03-17T02:15:47.012Z,30.60
2023-03-17T02:18:34.330Z,30.70
2023-03-17T02:21:46.409Z,30.61
2023-03-17T02:24:36.482Z,30.66
2023-03-17T02:27:27.928Z,30.65
2023-03-17T02:30:19.341Z,30.51
2023-03-17T02:33:06.101Z,30.52
2023-03-17T02:35:53.603Z,30.58
2023-03-17T02:38:41.405Z,30.60
2023-03-17T02:41:28.815Z,30.54
2023-03-17T02:44:16.175Z,30.54
2023-03-17T02:47:03.696Z,30.64
2023-03-17T02:49:51.327Z,30.72
2023-03-17T02:52:37.915Z,30.93
2023-03-17T02:55:24.640Z,31.06
2023-03-17T02:58:11.874Z,30.99
2023-03-17T03:00:58.776Z,31.09
2023-03-17T03:03:46.084Z,30.98
2023-03-17T03:06:33.542Z,31.00
2023-03-17T03:09:21.243Z,30.94
2023-03-17T03:12:10.223Z,30.86
2023-03-17T03:14:56.878Z,31.01
2023-03-17T03:17:43.944Z,30.93
2023-03-17T03:20:31.020Z,30.95
2023-03-17T03:23:18.889Z,30.89
2023-03-17T03:26:05.749Z,30.87
2023-03-17T03:28:52.519Z,30.88
2023-03-17T03:31:39.736Z,30.94
2023-03-17T03:34:27.981Z,30.81
2023-03-17T03:37:14.930Z,30.91
2023-03-17T03:40:02.332Z,30.98
2023-03-17T03:42:49.229Z,30.99
2023-03-17T03:45:36.134Z,31.09
2023-03-17T03:48:22.955Z,31.01
2023-03-17T03:51:09.565Z,30.95
2023-03-17T03:53:56.370Z,30.94
2023-03-17T03:56:43.074Z,30.94
2023-03-17T03:59:30.592Z,30.85
2023-03-17T04:02:17.479Z,30.77
2023-03-17T04:05:05.994Z,30.70
2023-03-17T04:07:53.063Z,30.69
2023-03-17T04:10:40.319Z,30.71
2023-03-17T04:13:27.219Z,30.73
2023-03-17T04:16:13.973Z,30.63
2023-03-17T04:19:01.777Z,30.57
2023-03-17T04:21:49.710Z,30.61
2023-03-17T04:24:36.376Z,30.53
2023-03-17T04:27:23.626Z,30.22
2023-03-17T04:30:17.036Z,30.28
2023-03-17T04:33:04.178Z,30.24
2023-03-17T04:35:51.545Z,30.02
2023-03-17T04:38:38.668Z,29.96
2023-03-17T04:41:25.878Z,30.00
2023-03-17T04:44:12.786Z,29.81
2023-03-17T04:46:59.399Z,29.71
2023-03-17T04:49:46.825Z,29.77
2023-03-17T04:52:34.241Z,29.78
2023-03-17T04:55:21.368Z,29.54
2023-03-17T04:58:10.334Z,29.68
2023-03-17T05:00:59.257Z,29.46
2023-03-17T05:03:46.310Z,29.42
2023-03-17T05:06:33.428Z,29.32
2023-03-17T05:09:20.053Z,29.32
2023-03-17T05:12:08.804Z,29.25
2023-03-17T05:14:55.697Z,29.17
2023-03-17T05:17:42.719Z,29.11
2023-03-17T05:20:29.413Z,29.07
2023-03-17T05:23:16.746Z,28.98
2023-03-17T05:26:04.279Z,29.03
2023-03-17T05:28:51.295Z,29.49
2023-03-17T05:31:38.613Z,30.33
2023-03-17T05:34:26.060Z,31.97
2023-03-17T05:37:13.274Z,32.81
2023-03-17T05:40:00.295Z,33.26
2023-03-17T05:42:47.712Z,33.59
2023-03-17T05:45:34.847Z,33.99
2023-03-17T05:48:22.919Z,34.22
2023-03-17T05:51:09.748Z,34.30
2023-03-17T05:53:56.888Z,34.34
2023-03-17T05:56:43.810Z,34.28
2023-03-17T05:59:31.351Z,34.25
2023-03-17T06:02:18.684Z,34.06
2023-03-17T06:05:06.519Z,33.96
2023-03-17T06:07:56.346Z,33.75
2023-03-17T06:10:43.701Z,33.56
2023-03-17T06:13:30.960Z,33.41
2023-03-17T06:16:18.051Z,33.26
2023-03-17T06:19:05.029Z,33.21
2023-03-17T06:21:52.473Z,33.00
2023-03-17T06:24:39.305Z,32.86
2023-03-17T06:27:26.384Z,32.60
2023-03-17T06:30:14.256Z,32.40
2023-03-17T06:33:02.250Z,32.22
2023-03-17T06:35:49.382Z,32.20
2023-03-17T06:38:36.933Z,32.01
2023-03-17T06:41:24.000Z,31.91
2023-03-17T06:44:11.209Z,31.71
2023-03-17T06:46:58.495Z,31.58
2023-03-17T06:49:45.186Z,31.59
2023-03-17T06:52:32.417Z,31.54
2023-03-17T06:55:19.750Z,31.57
2023-03-17T06:58:06.562Z,31.60
2023-03-17T07:00:54.255Z,31.47
2023-03-17T07:03:44.064Z,31.63
2023-03-17T07:06:31.193Z,31.48
2023-03-17T07:09:18.415Z,31.28
2023-03-17T07:12:06.247Z,31.25
2023-03-17T07:14:53.168Z,31.14
2023-03-17T07:17:41.974Z,31.12
2023-03-17T07:20:29.161Z,31.16
2023-03-17T07:23:23.056Z,31.06
2023-03-17T07:26:10.663Z,30.96
2023-03-17T07:28:57.763Z,30.93
2023-03-17T07:31:46.012Z,30.82
2023-03-17T07:34:33.549Z,30.92
2023-03-17T07:37:21.992Z,30.86
2023-03-17T07:40:10.439Z,30.91
2023-03-17T07:42:57.654Z,30.88
2023-03-17T07:45:46.987Z,30.80
2023-03-17T07:48:37.821Z,30.78
2023-03-17T07:51:28.092Z,30.79
2023-03-17T07:54:16.060Z,30.69
2023-03-17T07:57:03.954Z,30.73
2023-03-17T07:59:51.659Z,30.80
2023-03-17T08:02:39.290Z,30.78
2023-03-17T08:05:26.375Z,30.77
2023-03-17T08:08:13.497Z,30.65
2023-03-17T08:11:05.530Z,30.62
2023-03-17T08:13:52.438Z,30.62
2023-03-17T08:16:39.092Z,30.59
2023-03-17T08:19:26.401Z,30.53
2023-03-17T08:22:13.286Z,30.48
2023-03-17T08:25:00.411Z,30.50
2023-03-17T08:27:47.445Z,30.51
2023-03-17T08:30:35.117Z,30.67
2023-03-17T08:33:23.006Z,31.11
2023-03-17T08:36:11.649Z,31.67
2023-03-17T08:38:59.255Z,31.77
2023-03-17T08:41:47.076Z,31.88
2023-03-17T08:44:34.527Z,31.98
2023-03-17T08:47:22.059Z,31.92
2023-03-17T08:50:14.916Z,31.95
2023-03-17T08:53:02.250Z,31.67
2023-03-17T08:55:48.936Z,31.72
2023-03-17T08:58:37.787Z,31.76
2023-03-17T09:01:25.113Z,31.53
2023-03-17T09:04:11.932Z,31.64
2023-03-17T09:07:03.834Z,31.57
2023-03-17T09:09:51.092Z,31.46
2023-03-17T09:12:38.333Z,31.65
2023-03-17T09:15:25.438Z,31.50
2023-03-17T09:18:13.155Z,31.53
2023-03-17T09:21:00.489Z,31.56
2023-03-17T09:23:47.607Z,31.57
2023-03-17T09:26:34.303Z,31.88
2023-03-17T09:29:21.423Z,31.75
2023-03-17T09:32:08.979Z,31.36
2023-03-17T09:34:56.483Z,31.72
2023-03-17T09:37:43.816Z,31.71
2023-03-17T09:40:35.971Z,31.64
2023-03-17T09:44:03.731Z,31.61
2023-03-17T09:47:14.595Z,31.81
2023-03-17T09:50:04.460Z,31.76
2023-03-17T09:52:55.373Z,31.75
2023-03-17T09:55:44.173Z,31.86
2023-03-17T09:58:35.862Z,31.79
2023-03-17T10:01:23.374Z,31.62
2023-03-17T10:04:12.163Z,31.39
2023-03-17T10:07:04.717Z,31.58
2023-03-17T10:10:12.622Z,31.27
2023-03-17T10:13:17.946Z,31.13
2023-03-17T10:16:28.674Z,31.27
2023-03-17T10:19:27.889Z,31.49
2023-03-17T10:22:48.949Z,31.55
2023-03-17T10:25:37.626Z,31.44
2023-03-17T10:28:30.016Z,31.19
2023-03-17T10:31:21.485Z,31.19
2023-03-17T10:34:21.875Z,31.10
2023-03-17T10:37:18.829Z,31.25
2023-03-17T10:40:10.594Z,31.24
2023-03-17T10:43:05.632Z,30.63
2023-03-17T10:46:01.023Z,30.35
2023-03-17T10:48:58.389Z,30.49
2023-03-17T10:51:46.995Z,30.61
2023-03-17T10:54:37.327Z,30.88
2023-03-17T10:57:24.497Z,30.66
2023-03-17T11:00:20.147Z,30.50
2023-03-17T11:03:24.738Z,30.70
2023-03-17T11:06:17.398Z,30.72
2023-03-17T11:09:21.403Z,30.44
2023-03-17T11:12:19.991Z,30.11
2023-03-17T11:15:15.924Z,29.99
2023-03-17T11:18:18.817Z,30.09
2023-03-17T11:21:19.709Z,30.10
2023-03-17T11:24:26.442Z,30.04
2023-03-17T11:27:35.876Z,30.19
2023-03-17T11:30:38.650Z,30.26
2023-03-17T11:33:31.609Z,30.36
2023-03-17T11:36:30.382Z,30.40
2023-03-17T11:39:26.550Z,30.25
2023-03-17T11:42:32.080Z,30.18
2023-03-17T11:45:38.384Z,29.94
2023-03-17T11:48:35.305Z,29.97
2023-03-17T11:51:30.507Z,30.05
2023-03-17T11:54:38.820Z,30.02
2023-03-17T11:57:32.393Z,30.01
2023-03-17T12:00:28.131Z,30.18
2023-03-17T12:03:31.393Z,30.13
2023-03-17T12:06:26.186Z,30.24
2023-03-17T12:09:31.718Z,30.23
2023-03-17T12:12:28.506Z,30.09
2023-03-17T12:15:27.177Z,30.02
2023-03-17T12:18:17.289Z,30.13
2023-03-17T12:21:23.031Z,30.11
2023-03-17T12:24:13.020Z,29.98
2023-03-17T12:27:05.269Z,30.19
2023-03-17T12:30:03.134Z,30.18
2023-03-17T12:33:00.967Z,30.16
2023-03-17T12:35:48.132Z,30.29
2023-03-17T12:38:43.533Z,30.10
2023-03-17T12:42:10.276Z,30.29
2023-03-17T12:45:15.895Z,30.19
2023-03-17T12:48:24.140Z,29.77
2023-03-17T12:51:29.102Z,29.94
2023-03-17T12:54:28.157Z,29.65
2023-03-17T12:57:27.590Z,29.67
2023-03-17T13:00:37.531Z,29.84
2023-03-17T13:03:30.792Z,30.13
2023-03-17T13:06:21.606Z,30.09
2023-03-17T13:09:31.614Z,30.09
2023-03-17T13:12:38.437Z,29.65
2023-03-17T13:15:25.374Z,29.00
2023-03-17T13:18:18.633Z,28.49
2023-03-17T13:21:06.047Z,28.15
2023-03-17T13:24:16.310Z,28.00
2023-03-17T13:27:04.867Z,27.86
2023-03-17T13:29:53.672Z,27.93
2023-03-17T13:32:40.858Z,28.03
2023-03-17T13:35:41.907Z,28.37
2023-03-17T13:38:35.035Z,28.80
2023-03-17T13:41:46.819Z,28.86
2023-03-17T13:44:51.868Z,29.02
2023-03-17T13:47:44.432Z,29.18
2023-03-17T13:50:33.008Z,29.19
2023-03-17T13:53:27.869Z,29.26
2023-03-17T13:56:20.455Z,29.56
2023-03-17T13:59:14.601Z,29.56
2023-03-17T14:02:16.937Z,29.52
2023-03-17T14:05:27.177Z,29.36
2023-03-17T14:08:21.829Z,29.59
2023-03-17T14:11:22.384Z,29.68
2023-03-17T14:14:26.029Z,29.84
2023-03-17T14:17:51.169Z,29.79
2023-03-17T14:20:37.983Z,29.30
2023-03-17T14:23:26.343Z,29.14
2023-03-17T14:26:13.153Z,28.73
2023-03-17T14:29:02.772Z,28.25
2023-03-17T14:31:53.026Z,28.04
2023-03-17T14:34:48.877Z,28.31
2023-03-17T14:37:37.723Z,28.36
2023-03-17T14:40:28.439Z,28.56
2023-03-17T14:43:16.720Z,28.87
2023-03-17T14:46:12.823Z,28.71
2023-03-17T14:49:14.540Z,28.64
2023-03-17T14:52:02.795Z,28.43
2023-03-17T14:54:53.625Z,28.28
2023-03-17T14:57:40.434Z,28.54
2023-03-17T15:00:38.051Z,28.57
2023-03-17T15:03:29.792Z,28.63
2023-03-17T15:06:26.848Z,28.77
2023-03-17T15:09:20.004Z,28.93
2023-03-17T15:12:19.447Z,29.08
2023-03-17T15:15:22.719Z,29.10
2023-03-17T15:18:17.710Z,29.31
2023-03-17T15:21:05.030Z,29.25
2023-03-17T15:23:52.141Z,29.22
2023-03-17T15:26:39.054Z,29.13
2023-03-17T15:29:26.371Z,29.22
2023-03-17T15:32:16.696Z,29.09
2023-03-17T15:35:03.763Z,29.49
2023-03-17T15:37:51.121Z,29.55
2023-03-17T15:40:38.129Z,29.26
2023-03-17T15:43:24.751Z,29.11
2023-03-17T15:46:31.729Z,29.12
2023-03-17T15:49:18.848Z,29.01
2023-03-17T15:52:14.360Z,28.84
2023-03-17T15:55:01.374Z,28.68
2023-03-17T15:57:54.752Z,28.88
2023-03-17T16:00:42.988Z,28.90
2023-03-17T16:03:37.799Z,29.57
2023-03-17T16:06:24.692Z,29.73
2023-03-17T16:09:16.980Z,29.60
2023-03-17T16:12:04.652Z,29.36
2023-03-17T16:14:51.671Z,29.28
2023-03-17T16:17:38.805Z,29.30
2023-03-17T16:20:27.448Z,29.46
2023-03-17T16:23:17.711Z,29.46
2023-03-17T16:26:14.717Z,29.45
2023-03-17T16:29:02.417Z,29.54
2023-03-17T16:31:50.939Z,29.86
2023-03-17T16:34:37.784Z,30.11
2023-03-17T16:37:25.013Z,30.12
2023-03-17T16:40:21.972Z,30.15
2023-03-17T16:43:38.088Z,30.27
2023-03-17T16:46:26.950Z,30.47
2023-03-17T16:49:19.272Z,30.33
2023-03-17T16:52:06.475Z,30.39
2023-03-17T16:54:53.698Z,30.47
2023-03-17T16:57:43.292Z,30.51
2023-03-17T17:00:31.413Z,30.28
2023-03-17T17:03:19.200Z,30.49
2023-03-17T17:06:07.244Z,30.42
2023-03-17T17:08:54.331Z,30.34
2023-03-17T17:11:41.224Z,30.17
2023-03-17T17:14:28.549Z,30.18
2023-03-17T17:17:15.566Z,30.28
2023-03-17T17:20:02.286Z,30.20
2023-03-17T17:22:49.905Z,30.15
2023-03-17T17:25:36.924Z,30.05
2023-03-17T17:28:24.955Z,30.04
2023-03-17T17:31:11.886Z,30.18
2023-03-17T17:33:58.682Z,30.01
2023-03-17T17:36:46.034Z,29.83
2023-03-17T17:39:32.866Z,29.74
2023-03-17T17:42:21.060Z,29.83
2023-03-17T17:45:09.307Z,29.73
2023-03-17T17:47:56.544Z,29.73
2023-03-17T17:50:45.459Z,29.60
2023-03-17T17:53:32.713Z,29.48
2023-03-17T17:56:19.934Z,29.59
2023-03-17T17:59:07.256Z,29.65
2023-03-17T18:01:54.364Z,29.74
2023-03-17T18:04:42.418Z,29.47
2023-03-17T18:07:30.045Z,29.44
2023-03-17T18:10:26.018Z,29.32
2023-03-17T18:13:12.773Z,29.30
2023-03-17T18:16:01.445Z,29.05
2023-03-17T18:18:48.461Z,28.76
2023-03-17T18:21:36.655Z,28.70
2023-03-17T18:24:24.326Z,28.61
2023-03-17T18:27:11.990Z,28.36
2023-03-17T18:29:59.985Z,28.22
2023-03-17T18:32:49.729Z,28.14
2023-03-17T18:35:37.536Z,28.26
2023-03-17T18:38:25.339Z,28.00
2023-03-17T18:41:12.792Z,28.03
2023-03-17T18:43:59.782Z,28.02
2023-03-17T18:46:46.491Z,28.02
2023-03-17T18:49:33.705Z,28.12
2023-03-17T18:52:21.231Z,27.99
2023-03-17T18:55:10.193Z,28.23
2023-03-17T18:57:57.423Z,28.05
2023-03-17T19:00:44.399Z,27.86
2023-03-17T19:03:32.546Z,27.96
2023-03-17T19:06:21.645Z,27.89
2023-03-17T19:09:11.724Z,27.97
2023-03-17T19:11:59.666Z,27.82
2023-03-17T19:14:46.481Z,28.00
2023-03-17T19:17:33.596Z,28.01
2023-03-17T19:20:20.512Z,27.94
2023-03-17T19:23:08.134Z,27.83
2023-03-17T19:25:55.260Z,27.75
2023-03-17T19:28:42.388Z,27.72
2023-03-17T19:31:29.349Z,27.76
2023-03-17T19:34:16.626Z,27.72
2023-03-17T19:37:04.106Z,27.82
2023-03-17T19:39:51.263Z,27.78
2023-03-17T19:42:38.378Z,27.64
2023-03-17T19:45:26.227Z,27.63
2023-03-17T19:48:12.815Z,27.57
2023-03-17T19:51:00.458Z,27.44
2023-03-17T19:53:47.366Z,27.52
2023-03-17T19:56:34.488Z,27.57
2023-03-17T19:59:21.420Z,27.53
2023-03-17T20:02:08.838Z,27.48
2023-03-17T20:04:55.994Z,27.41
2023-03-17T20:07:42.781Z,27.33
2023-03-17T20:10:29.906Z,27.32
2023-03-17T20:13:17.314Z,27.24
2023-03-17T20:16:05.942Z,27.22
2023-03-17T20:18:52.650Z,27.15
2023-03-17T20:21:40.281Z,27.18
2023-03-17T20:24:31.513Z,27.00
2023-03-17T20:27:18.520Z,26.98
2023-03-17T20:30:08.513Z,26.98
2023-03-17T20:32:55.373Z,26.90
2023-03-17T20:35:44.811Z,26.77
2023-03-17T20:38:39.006Z,26.79
2023-03-17T20:41:26.187Z,26.87
2023-03-17T20:44:13.834Z,26.89
2023-03-17T20:47:00.844Z,26.82
2023-03-17T20:49:48.984Z,26.64
2023-03-17T20:52:41.223Z,26.67
2023-03-17T20:55:28.546Z,26.70
2023-03-17T20:58:16.145Z,26.66
2023-03-17T21:01:03.695Z,26.73
2023-03-17T21:03:51.730Z,26.67
2023-03-17T21:06:39.790Z,26.73
2023-03-17T21:09:26.793Z,26.60
2023-03-17T21:12:16.431Z,26.71
2023-03-17T21:15:03.793Z,26.69
2023-03-17T21:17:50.679Z,26.66
2023-03-17T21:20:37.735Z,26.72
2023-03-17T21:23:24.748Z,26.71
2023-03-17T21:26:13.798Z,26.67
2023-03-17T21:29:00.840Z,26.66
2023-03-17T21:31:48.007Z,26.68
2023-03-17T21:34:35.982Z,26.68
2023-03-17T21:37:22.655Z,26.76
2023-03-17T21:40:13.649Z,26.81
2023-03-17T21:43:01.019Z,26.76
2023-03-17T21:45:48.728Z,26.71
2023-03-17T21:48:35.566Z,26.78
2023-03-17T21:51:22.817Z,26.74
2023-03-17T21:54:10.738Z,26.75
2023-03-17T21:56:58.507Z,26.72
2023-03-17T21:59:45.785Z,26.74
2023-03-17T22:02:32.999Z,26.75
2023-03-17T22:05:19.921Z,26.86
2023-03-17T22:08:06.785Z,26.75
2023-03-17T22:10:54.057Z,26.82
2023-03-17T22:13:41.581Z,26.73
2023-03-17T22:16:28.938Z,26.79
2023-03-17T22:19:19.309Z,26.76
2023-03-17T22:22:08.566Z,26.84
2023-03-17T22:24:56.631Z,26.69
2023-03-17T22:27:43.930Z,26.73
2023-03-17T22:30:30.884Z,26.68
2023-03-17T22:33:18.366Z,26.74
2023-03-17T22:36:06.361Z,26.72
2023-03-17T22:38:54.771Z,26.75
2023-03-17T22:41:41.777Z,26.76
2023-03-17T22:44:28.696Z,26.74
2023-03-17T22:47:15.801Z,26.77
2023-03-17T22:50:02.929Z,26.81
2023-03-17T22:52:50.048Z,26.94
2023-03-17T22:55:37.158Z,26.88
2023-03-17T22:58:24.900Z,26.77
2023-03-17T23:01:13.640Z,26.79
2023-03-17T23:04:01.309Z,26.80
2023-03-17T23:06:49.127Z,26.84
2023-03-17T23:09:38.702Z,26.81
2023-03-17T23:12:28.295Z,26.81
2023-03-17T23:15:15.166Z,26.81
2023-03-17T23:18:02.562Z,26.88
2023-03-17T23:20:50.558Z,26.79
2023-03-17T23:23:38.808Z,26.82
2023-03-17T23:26:26.755Z,26.81
2023-03-17T23:29:13.455Z,26.92
2023-03-17T23:32:00.974Z,26.89
2023-03-17T23:34:47.952Z,26.93
2023-03-17T23:37:36.415Z,26.89
2023-03-17T23:40:23.852Z,26.91
2023-03-17T23:43:10.657Z,27.01
2023-03-17T23:45:57.717Z,26.97
2023-03-17T23:48:44.698Z,26.93
2023-03-17T23:51:31.167Z,26.97
2023-03-17T23:54:17.916Z,26.95
2023-03-17T23:57:05.176Z,27.00
2023-03-17T23:59:52.673Z,27.01
